sensor_id;sensor_type;location;lat;lon;timestamp;P1;durP1;ratioP1;P2;durP2;ratioP2
51778;SDS011;37843;53.266;6.746;2022-07-22T00:01:58;7.20;;;3.60;;
51778;SDS011;37843;53.266;6.746;2022-07-22T00:04:23;9.43;;;4.22;;
51778;SDS011;37843;53.266;6.746;2022-07-22T00:06:49;7.47;;;3.42;;
51778;SDS011;37843;53.266;6.746;2022-07-22T00:09:15;7.97;;;3.33;;
51778;SDS011;37843;53.266;6.746;2022-07-22T00:11:41;10.10;;;4.05;;
51778;SDS011;37843;53.266;6.746;2022-07-22T00:14:07;8.60;;;4.05;;
51778;SDS011;37843;53.266;6.746;2022-07-22T00:16:32;7.47;;;3.60;;
51778;SDS011;37843;53.266;6.746;2022-07-22T00:18:58;19.73;;;3.90;;
51778;SDS011;37843;53.266;6.746;2022-07-22T00:21:24;8.00;;;3.20;;
51778;SDS011;37843;53.266;6.746;2022-07-22T00:23:49;7.25;;;3.42;;
51778;SDS011;37843;53.266;6.746;2022-07-22T00:26:15;5.35;;;3.15;;
51778;SDS011;37843;53.266;6.746;2022-07-22T00:28:41;6.35;;;3.25;;
51778;SDS011;37843;53.266;6.746;2022-07-22T00:31:06;12.00;;;3.53;;
51778;SDS011;37843;53.266;6.746;2022-07-22T00:33:32;9.35;;;3.35;;
51778;SDS011;37843;53.266;6.746;2022-07-22T00:35:58;6.70;;;2.92;;
51778;SDS011;37843;53.266;6.746;2022-07-22T00:38:24;8.88;;;3.83;;
51778;SDS011;37843;53.266;6.746;2022-07-22T00:40:49;11.50;;;3.80;;
51778;SDS011;37843;53.266;6.746;2022-07-22T00:43:15;8.63;;;4.05;;
51778;SDS011;37843;53.266;6.746;2022-07-22T00:45:41;7.03;;;3.13;;
51778;SDS011;37843;53.266;6.746;2022-07-22T00:48:10;8.35;;;3.33;;
51778;SDS011;37843;53.266;6.746;2022-07-22T00:50:36;11.13;;;3.60;;
51778;SDS011;37843;53.266;6.746;2022-07-22T00:53:02;7.97;;;3.05;;
51778;SDS011;37843;53.266;6.746;2022-07-22T00:55:28;9.38;;;3.50;;
51778;SDS011;37843;53.266;6.746;2022-07-22T00:57:54;7.22;;;2.67;;
51778;SDS011;37843;53.266;6.746;2022-07-22T01:00:21;6.03;;;3.25;;
51778;SDS011;37843;53.266;6.746;2022-07-22T01:02:47;5.88;;;2.65;;
51778;SDS011;37843;53.266;6.746;2022-07-22T01:05:13;6.15;;;3.30;;
51778;SDS011;37843;53.266;6.746;2022-07-22T01:07:39;11.85;;;2.88;;
51778;SDS011;37843;53.266;6.746;2022-07-22T01:10:05;9.50;;;2.72;;
51778;SDS011;37843;53.266;6.746;2022-07-22T01:12:32;6.22;;;2.70;;
51778;SDS011;37843;53.266;6.746;2022-07-22T01:14:57;4.03;;;2.47;;
51778;SDS011;37843;53.266;6.746;2022-07-22T01:17:23;9.23;;;2.67;;
51778;SDS011;37843;53.266;6.746;2022-07-22T01:19:49;6.25;;;2.70;;
51778;SDS011;37843;53.266;6.746;2022-07-22T01:22:15;9.13;;;2.67;;
51778;SDS011;37843;53.266;6.746;2022-07-22T01:24:41;8.10;;;2.95;;
51778;SDS011;37843;53.266;6.746;2022-07-22T01:27:07;5.75;;;2.75;;
51778;SDS011;37843;53.266;6.746;2022-07-22T01:29:33;13.80;;;3.50;;
51778;SDS011;37843;53.266;6.746;2022-07-22T01:31:59;7.45;;;2.65;;
51778;SDS011;37843;53.266;6.746;2022-07-22T01:34:25;8.93;;;3.20;;
51778;SDS011;37843;53.266;6.746;2022-07-22T01:36:51;5.15;;;2.47;;
51778;SDS011;37843;53.266;6.746;2022-07-22T01:39:16;6.30;;;2.58;;
51778;SDS011;37843;53.266;6.746;2022-07-22T01:41:43;8.38;;;2.78;;
51778;SDS011;37843;53.266;6.746;2022-07-22T01:44:09;11.90;;;3.03;;
51778;SDS011;37843;53.266;6.746;2022-07-22T01:46:35;9.10;;;3.30;;
51778;SDS011;37843;53.266;6.746;2022-07-22T01:49:00;9.95;;;2.63;;
51778;SDS011;37843;53.266;6.746;2022-07-22T01:51:27;6.25;;;2.42;;
51778;SDS011;37843;53.266;6.746;2022-07-22T01:53:52;5.18;;;2.53;;
51778;SDS011;37843;53.266;6.746;2022-07-22T01:56:18;5.82;;;2.75;;
51778;SDS011;37843;53.266;6.746;2022-07-22T01:58:44;8.02;;;2.55;;
51778;SDS011;37843;53.266;6.746;2022-07-22T02:01:10;10.35;;;2.75;;
51778;SDS011;37843;53.266;6.746;2022-07-22T02:03:36;8.20;;;2.50;;
51778;SDS011;37843;53.266;6.746;2022-07-22T02:06:02;7.50;;;2.35;;
51778;SDS011;37843;53.266;6.746;2022-07-22T02:08:28;8.70;;;2.28;;
51778;SDS011;37843;53.266;6.746;2022-07-22T02:10:54;4.72;;;2.25;;
51778;SDS011;37843;53.266;6.746;2022-07-22T02:13:20;7.18;;;2.38;;
51778;SDS011;37843;53.266;6.746;2022-07-22T02:15:46;7.07;;;2.13;;
51778;SDS011;37843;53.266;6.746;2022-07-22T02:18:12;9.85;;;2.42;;
51778;SDS011;37843;53.266;6.746;2022-07-22T02:20:39;8.70;;;2.72;;
51778;SDS011;37843;53.266;6.746;2022-07-22T02:23:05;6.15;;;2.45;;
51778;SDS011;37843;53.266;6.746;2022-07-22T02:25:31;9.38;;;2.88;;
51778;SDS011;37843;53.266;6.746;2022-07-22T02:27:57;7.78;;;2.55;;
51778;SDS011;37843;53.266;6.746;2022-07-22T02:30:22;7.53;;;2.22;;
51778;SDS011;37843;53.266;6.746;2022-07-22T02:32:48;5.90;;;2.03;;
51778;SDS011;37843;53.266;6.746;2022-07-22T02:35:14;5.63;;;2.60;;
51778;SDS011;37843;53.266;6.746;2022-07-22T02:37:40;21.73;;;2.75;;
51778;SDS011;37843;53.266;6.746;2022-07-22T02:40:06;9.65;;;2.92;;
51778;SDS011;37843;53.266;6.746;2022-07-22T02:42:33;7.00;;;2.10;;
51778;SDS011;37843;53.266;6.746;2022-07-22T02:44:59;4.32;;;2.08;;
51778;SDS011;37843;53.266;6.746;2022-07-22T02:47:24;4.75;;;2.10;;
51778;SDS011;37843;53.266;6.746;2022-07-22T02:49:51;5.22;;;1.90;;
51778;SDS011;37843;53.266;6.746;2022-07-22T02:52:16;5.97;;;1.92;;
51778;SDS011;37843;53.266;6.746;2022-07-22T02:54:42;3.92;;;2.33;;
51778;SDS011;37843;53.266;6.746;2022-07-22T02:57:08;3.97;;;1.60;;
51778;SDS011;37843;53.266;6.746;2022-07-22T02:59:34;4.00;;;2.03;;
51778;SDS011;37843;53.266;6.746;2022-07-22T03:02:00;6.35;;;2.42;;
51778;SDS011;37843;53.266;6.746;2022-07-22T03:04:26;6.93;;;2.25;;
51778;SDS011;37843;53.266;6.746;2022-07-22T03:06:52;4.93;;;2.10;;
51778;SDS011;37843;53.266;6.746;2022-07-22T03:09:17;4.57;;;1.80;;
51778;SDS011;37843;53.266;6.746;2022-07-22T03:11:44;7.18;;;2.25;;
51778;SDS011;37843;53.266;6.746;2022-07-22T03:14:10;9.25;;;2.33;;
51778;SDS011;37843;53.266;6.746;2022-07-22T03:16:36;4.78;;;2.22;;
51778;SDS011;37843;53.266;6.746;2022-07-22T03:19:02;4.95;;;2.15;;
51778;SDS011;37843;53.266;6.746;2022-07-22T03:21:28;6.22;;;2.35;;
51778;SDS011;37843;53.266;6.746;2022-07-22T03:23:54;4.25;;;1.88;;
51778;SDS011;37843;53.266;6.746;2022-07-22T03:26:20;7.15;;;2.53;;
51778;SDS011;37843;53.266;6.746;2022-07-22T03:28:47;6.05;;;1.98;;
51778;SDS011;37843;53.266;6.746;2022-07-22T03:31:13;5.50;;;2.30;;
51778;SDS011;37843;53.266;6.746;2022-07-22T03:33:39;4.28;;;2.13;;
51778;SDS011;37843;53.266;6.746;2022-07-22T03:36:04;3.40;;;1.85;;
51778;SDS011;37843;53.266;6.746;2022-07-22T03:38:30;3.60;;;2.00;;
51778;SDS011;37843;53.266;6.746;2022-07-22T03:40:56;5.72;;;2.75;;
51778;SDS011;37843;53.266;6.746;2022-07-22T03:43:22;9.48;;;2.35;;
51778;SDS011;37843;53.266;6.746;2022-07-22T03:45:48;5.88;;;2.70;;
51778;SDS011;37843;53.266;6.746;2022-07-22T03:48:13;4.40;;;2.00;;
51778;SDS011;37843;53.266;6.746;2022-07-22T03:50:39;6.78;;;2.80;;
51778;SDS011;37843;53.266;6.746;2022-07-22T03:53:05;6.75;;;2.70;;
51778;SDS011;37843;53.266;6.746;2022-07-22T03:55:31;4.82;;;2.28;;
51778;SDS011;37843;53.266;6.746;2022-07-22T03:57:56;6.15;;;2.47;;
51778;SDS011;37843;53.266;6.746;2022-07-22T04:00:22;4.43;;;2.25;;
51778;SDS011;37843;53.266;6.746;2022-07-22T04:02:48;6.00;;;2.72;;
51778;SDS011;37843;53.266;6.746;2022-07-22T04:05:14;7.65;;;3.42;;
51778;SDS011;37843;53.266;6.746;2022-07-22T04:07:39;6.75;;;2.55;;
51778;SDS011;37843;53.266;6.746;2022-07-22T04:10:05;5.75;;;2.28;;
51778;SDS011;37843;53.266;6.746;2022-07-22T04:12:32;7.97;;;2.75;;
51778;SDS011;37843;53.266;6.746;2022-07-22T04:14:59;5.72;;;2.50;;
51778;SDS011;37843;53.266;6.746;2022-07-22T04:17:25;3.20;;;2.45;;
51778;SDS011;37843;53.266;6.746;2022-07-22T04:19:50;5.50;;;2.38;;
51778;SDS011;37843;53.266;6.746;2022-07-22T04:22:16;5.15;;;3.38;;
51778;SDS011;37843;53.266;6.746;2022-07-22T04:24:42;4.20;;;1.88;;
51778;SDS011;37843;53.266;6.746;2022-07-22T04:27:08;4.47;;;1.92;;
51778;SDS011;37843;53.266;6.746;2022-07-22T04:29:33;3.13;;;1.90;;
51778;SDS011;37843;53.266;6.746;2022-07-22T04:31:59;4.45;;;1.80;;
51778;SDS011;37843;53.266;6.746;2022-07-22T04:34:25;3.25;;;1.65;;
51778;SDS011;37843;53.266;6.746;2022-07-22T04:36:51;5.07;;;1.95;;
51778;SDS011;37843;53.266;6.746;2022-07-22T04:39:16;4.28;;;1.70;;
51778;SDS011;37843;53.266;6.746;2022-07-22T04:41:43;3.28;;;1.70;;
51778;SDS011;37843;53.266;6.746;2022-07-22T04:44:09;4.43;;;1.90;;
51778;SDS011;37843;53.266;6.746;2022-07-22T04:46:34;4.47;;;2.03;;
51778;SDS011;37843;53.266;6.746;2022-07-22T04:49:00;4.35;;;1.70;;
51778;SDS011;37843;53.266;6.746;2022-07-22T04:51:26;4.68;;;1.90;;
51778;SDS011;37843;53.266;6.746;2022-07-22T04:53:52;3.80;;;1.50;;
51778;SDS011;37843;53.266;6.746;2022-07-22T04:56:17;4.07;;;1.60;;
51778;SDS011;37843;53.266;6.746;2022-07-22T04:58:43;3.95;;;1.70;;
51778;SDS011;37843;53.266;6.746;2022-07-22T05:01:09;3.90;;;1.63;;
51778;SDS011;37843;53.266;6.746;2022-07-22T05:03:37;3.88;;;1.40;;
51778;SDS011;37843;53.266;6.746;2022-07-22T05:06:03;6.38;;;2.30;;
51778;SDS011;37843;53.266;6.746;2022-07-22T05:08:29;4.57;;;1.85;;
51778;SDS011;37843;53.266;6.746;2022-07-22T05:10:55;4.70;;;1.67;;
51778;SDS011;37843;53.266;6.746;2022-07-22T05:13:20;4.93;;;1.83;;
51778;SDS011;37843;53.266;6.746;2022-07-22T05:15:46;3.95;;;1.88;;
51778;SDS011;37843;53.266;6.746;2022-07-22T05:18:12;5.38;;;2.08;;
51778;SDS011;37843;53.266;6.746;2022-07-22T05:20:37;4.43;;;2.33;;
51778;SDS011;37843;53.266;6.746;2022-07-22T05:23:03;3.95;;;1.83;;
51778;SDS011;37843;53.266;6.746;2022-07-22T05:25:29;5.43;;;2.00;;
51778;SDS011;37843;53.266;6.746;2022-07-22T05:27:55;2.65;;;1.65;;
51778;SDS011;37843;53.266;6.746;2022-07-22T05:30:21;7.22;;;2.00;;
51778;SDS011;37843;53.266;6.746;2022-07-22T05:32:47;4.10;;;2.10;;
51778;SDS011;37843;53.266;6.746;2022-07-22T05:35:13;7.90;;;2.10;;
51778;SDS011;37843;53.266;6.746;2022-07-22T05:37:39;7.53;;;2.15;;
51778;SDS011;37843;53.266;6.746;2022-07-22T05:40:05;3.92;;;1.90;;
51778;SDS011;37843;53.266;6.746;2022-07-22T05:42:31;4.78;;;1.63;;
51778;SDS011;37843;53.266;6.746;2022-07-22T05:44:57;3.65;;;1.48;;
51778;SDS011;37843;53.266;6.746;2022-07-22T05:47:22;2.95;;;1.65;;
51778;SDS011;37843;53.266;6.746;2022-07-22T05:49:48;6.78;;;1.80;;
51778;SDS011;37843;53.266;6.746;2022-07-22T05:52:14;3.25;;;1.58;;
51778;SDS011;37843;53.266;6.746;2022-07-22T05:54:40;2.85;;;1.58;;
51778;SDS011;37843;53.266;6.746;2022-07-22T05:57:05;4.78;;;1.70;;
51778;SDS011;37843;53.266;6.746;2022-07-22T05:59:35;4.03;;;2.20;;
51778;SDS011;37843;53.266;6.746;2022-07-22T06:02:02;2.92;;;1.38;;
51778;SDS011;37843;53.266;6.746;2022-07-22T06:04:28;4.10;;;1.40;;
51778;SDS011;37843;53.266;6.746;2022-07-22T06:06:54;2.85;;;1.50;;
51778;SDS011;37843;53.266;6.746;2022-07-22T06:09:20;4.47;;;1.50;;
51778;SDS011;37843;53.266;6.746;2022-07-22T06:11:46;2.58;;;1.48;;
51778;SDS011;37843;53.266;6.746;2022-07-22T06:14:12;2.63;;;1.58;;
51778;SDS011;37843;53.266;6.746;2022-07-22T06:16:38;4.95;;;1.88;;
51778;SDS011;37843;53.266;6.746;2022-07-22T06:19:04;5.00;;;1.52;;
51778;SDS011;37843;53.266;6.746;2022-07-22T06:21:31;7.30;;;2.08;;
51778;SDS011;37843;53.266;6.746;2022-07-22T06:23:57;4.57;;;1.85;;
51778;SDS011;37843;53.266;6.746;2022-07-22T06:26:23;3.90;;;1.60;;
51778;SDS011;37843;53.266;6.746;2022-07-22T06:28:49;3.38;;;1.50;;
51778;SDS011;37843;53.266;6.746;2022-07-22T06:31:15;5.03;;;1.50;;
51778;SDS011;37843;53.266;6.746;2022-07-22T06:33:41;6.85;;;1.60;;
51778;SDS011;37843;53.266;6.746;2022-07-22T06:36:07;3.88;;;1.75;;
51778;SDS011;37843;53.266;6.746;2022-07-22T06:38:34;3.15;;;1.52;;
51778;SDS011;37843;53.266;6.746;2022-07-22T06:41:00;2.70;;;1.40;;
51778;SDS011;37843;53.266;6.746;2022-07-22T06:43:26;6.18;;;1.80;;
51778;SDS011;37843;53.266;6.746;2022-07-22T06:45:55;4.18;;;1.75;;
51778;SDS011;37843;53.266;6.746;2022-07-22T06:48:21;2.83;;;1.40;;
51778;SDS011;37843;53.266;6.746;2022-07-22T06:50:48;4.45;;;1.63;;
51778;SDS011;37843;53.266;6.746;2022-07-22T06:53:14;6.75;;;2.00;;
51778;SDS011;37843;53.266;6.746;2022-07-22T06:55:40;3.13;;;1.50;;
51778;SDS011;37843;53.266;6.746;2022-07-22T06:58:06;2.85;;;1.52;;
51778;SDS011;37843;53.266;6.746;2022-07-22T07:00:32;4.70;;;1.45;;
51778;SDS011;37843;53.266;6.746;2022-07-22T07:02:58;3.45;;;1.25;;
51778;SDS011;37843;53.266;6.746;2022-07-22T07:05:25;2.97;;;1.60;;
51778;SDS011;37843;53.266;6.746;2022-07-22T07:07:52;5.88;;;1.83;;
51778;SDS011;37843;53.266;6.746;2022-07-22T07:10:18;1.98;;;1.38;;
51778;SDS011;37843;53.266;6.746;2022-07-22T07:12:45;2.83;;;1.52;;
51778;SDS011;37843;53.266;6.746;2022-07-22T07:15:11;4.93;;;1.63;;
51778;SDS011;37843;53.266;6.746;2022-07-22T07:17:37;2.35;;;1.60;;
51778;SDS011;37843;53.266;6.746;2022-07-22T07:20:04;4.93;;;1.60;;
51778;SDS011;37843;53.266;6.746;2022-07-22T07:22:34;4.78;;;1.50;;
51778;SDS011;37843;53.266;6.746;2022-07-22T07:25:03;2.35;;;1.40;;
51778;SDS011;37843;53.266;6.746;2022-07-22T07:27:30;4.50;;;1.42;;
51778;SDS011;37843;53.266;6.746;2022-07-22T07:29:56;3.90;;;1.40;;
51778;SDS011;37843;53.266;6.746;2022-07-22T07:32:22;5.25;;;1.60;;
51778;SDS011;37843;53.266;6.746;2022-07-22T07:34:48;3.53;;;1.30;;
51778;SDS011;37843;53.266;6.746;2022-07-22T07:37:15;5.72;;;1.25;;
51778;SDS011;37843;53.266;6.746;2022-07-22T07:39:41;4.50;;;1.38;;
51778;SDS011;37843;53.266;6.746;2022-07-22T07:42:07;6.53;;;1.55;;
51778;SDS011;37843;53.266;6.746;2022-07-22T07:44:33;3.22;;;1.15;;
51778;SDS011;37843;53.266;6.746;2022-07-22T07:46:59;8.30;;;1.50;;
51778;SDS011;37843;53.266;6.746;2022-07-22T07:49:25;4.70;;;1.40;;
51778;SDS011;37843;53.266;6.746;2022-07-22T07:51:52;2.35;;;1.17;;
51778;SDS011;37843;53.266;6.746;2022-07-22T07:54:18;3.65;;;1.50;;
51778;SDS011;37843;53.266;6.746;2022-07-22T07:56:45;4.93;;;1.40;;
51778;SDS011;37843;53.266;6.746;2022-07-22T07:59:11;2.53;;;1.60;;
51778;SDS011;37843;53.266;6.746;2022-07-22T08:01:38;6.05;;;1.40;;
51778;SDS011;37843;53.266;6.746;2022-07-22T08:04:04;4.80;;;1.48;;
51778;SDS011;37843;53.266;6.746;2022-07-22T08:06:31;2.28;;;1.30;;
51778;SDS011;37843;53.266;6.746;2022-07-22T08:08:57;2.95;;;1.27;;
51778;SDS011;37843;53.266;6.746;2022-07-22T08:11:23;2.58;;;1.48;;
51778;SDS011;37843;53.266;6.746;2022-07-22T08:13:49;4.88;;;1.42;;
51778;SDS011;37843;53.266;6.746;2022-07-22T08:16:16;3.75;;;1.45;;
51778;SDS011;37843;53.266;6.746;2022-07-22T08:18:42;2.17;;;1.10;;
51778;SDS011;37843;53.266;6.746;2022-07-22T08:21:08;5.38;;;1.50;;
51778;SDS011;37843;53.266;6.746;2022-07-22T08:23:35;5.10;;;1.25;;
51778;SDS011;37843;53.266;6.746;2022-07-22T08:26:01;7.43;;;2.13;;
51778;SDS011;37843;53.266;6.746;2022-07-22T08:28:27;5.82;;;1.70;;
51778;SDS011;37843;53.266;6.746;2022-07-22T08:30:53;5.07;;;1.50;;
51778;SDS011;37843;53.266;6.746;2022-07-22T08:33:20;2.88;;;1.48;;
51778;SDS011;37843;53.266;6.746;2022-07-22T08:35:46;5.40;;;1.63;;
51778;SDS011;37843;53.266;6.746;2022-07-22T08:38:12;2.90;;;1.75;;
51778;SDS011;37843;53.266;6.746;2022-07-22T08:40:38;3.38;;;1.50;;
51778;SDS011;37843;53.266;6.746;2022-07-22T08:43:05;3.40;;;1.50;;
51778;SDS011;37843;53.266;6.746;2022-07-22T08:45:31;4.75;;;1.85;;
51778;SDS011;37843;53.266;6.746;2022-07-22T08:47:58;2.42;;;1.35;;
51778;SDS011;37843;53.266;6.746;2022-07-22T08:50:24;4.70;;;1.50;;
51778;SDS011;37843;53.266;6.746;2022-07-22T08:52:51;2.75;;;1.15;;
51778;SDS011;37843;53.266;6.746;2022-07-22T08:55:20;3.13;;;1.63;;
51778;SDS011;37843;53.266;6.746;2022-07-22T08:57:46;4.00;;;1.20;;
51778;SDS011;37843;53.266;6.746;2022-07-22T09:00:15;2.67;;;1.40;;
51778;SDS011;37843;53.266;6.746;2022-07-22T09:02:42;2.90;;;1.48;;
51778;SDS011;37843;53.266;6.746;2022-07-22T09:05:09;1.75;;;1.17;;
51778;SDS011;37843;53.266;6.746;2022-07-22T09:07:37;3.60;;;1.60;;
51778;SDS011;37843;53.266;6.746;2022-07-22T09:10:05;2.70;;;1.30;;
51778;SDS011;37843;53.266;6.746;2022-07-22T09:12:32;6.05;;;1.85;;
51778;SDS011;37843;53.266;6.746;2022-07-22T09:15:00;3.65;;;1.60;;
51778;SDS011;37843;53.266;6.746;2022-07-22T09:17:36;3.58;;;2.15;;
51778;SDS011;37843;53.266;6.746;2022-07-22T09:20:05;3.10;;;1.83;;
51778;SDS011;37843;53.266;6.746;2022-07-22T09:22:41;3.78;;;1.40;;
51778;SDS011;37843;53.266;6.746;2022-07-22T09:27:48;5.50;;;1.40;;
51778;SDS011;37843;53.266;6.746;2022-07-22T09:30:15;2.50;;;1.42;;
51778;SDS011;37843;53.266;6.746;2022-07-22T09:32:47;3.35;;;1.50;;
51778;SDS011;37843;53.266;6.746;2022-07-22T09:35:13;2.88;;;1.40;;
51778;SDS011;37843;53.266;6.746;2022-07-22T09:37:49;1.85;;;1.40;;
51778;SDS011;37843;53.266;6.746;2022-07-22T09:40:20;2.92;;;1.00;;
51778;SDS011;37843;53.266;6.746;2022-07-22T09:42:48;2.42;;;1.50;;
51778;SDS011;37843;53.266;6.746;2022-07-22T09:45:14;4.72;;;1.25;;
51778;SDS011;37843;53.266;6.746;2022-07-22T09:47:41;4.30;;;1.52;;
51778;SDS011;37843;53.266;6.746;2022-07-22T09:50:24;3.90;;;1.55;;
51778;SDS011;37843;53.266;6.746;2022-07-22T09:52:51;6.20;;;1.58;;
51778;SDS011;37843;53.266;6.746;2022-07-22T09:55:18;3.15;;;1.30;;
51778;SDS011;37843;53.266;6.746;2022-07-22T09:57:45;1.38;;;1.25;;
51778;SDS011;37843;53.266;6.746;2022-07-22T10:00:12;3.78;;;1.40;;
51778;SDS011;37843;53.266;6.746;2022-07-22T10:03:02;3.17;;;1.30;;
51778;SDS011;37843;53.266;6.746;2022-07-22T10:05:26;3.65;;;1.40;;
51778;SDS011;37843;53.266;6.746;2022-07-22T10:07:53;3.60;;;1.42;;
51778;SDS011;37843;53.266;6.746;2022-07-22T10:10:21;1.92;;;1.17;;
51778;SDS011;37843;53.266;6.746;2022-07-22T10:12:48;3.90;;;1.48;;
51778;SDS011;37843;53.266;6.746;2022-07-22T10:15:15;5.90;;;1.33;;
51778;SDS011;37843;53.266;6.746;2022-07-22T10:17:43;4.47;;;1.20;;
51778;SDS011;37843;53.266;6.746;2022-07-22T10:20:10;2.70;;;1.50;;
51778;SDS011;37843;53.266;6.746;2022-07-22T10:25:12;4.57;;;1.50;;
51778;SDS011;37843;53.266;6.746;2022-07-22T10:27:45;2.10;;;1.38;;
51778;SDS011;37843;53.266;6.746;2022-07-22T10:30:18;3.58;;;1.80;;
51778;SDS011;37843;53.266;6.746;2022-07-22T10:32:45;6.47;;;2.08;;
51778;SDS011;37843;53.266;6.746;2022-07-22T10:37:38;1.92;;;1.23;;
51778;SDS011;37843;53.266;6.746;2022-07-22T10:40:19;3.20;;;1.38;;
51778;SDS011;37843;53.266;6.746;2022-07-22T10:45:24;3.28;;;1.20;;
51778;SDS011;37843;53.266;6.746;2022-07-22T10:47:56;4.05;;;1.35;;
51778;SDS011;37843;53.266;6.746;2022-07-22T10:53:23;3.70;;;1.33;;
51778;SDS011;37843;53.266;6.746;2022-07-22T10:56:06;4.38;;;3.30;;
51778;SDS011;37843;53.266;6.746;2022-07-22T11:01:01;2.83;;;1.13;;
51778;SDS011;37843;53.266;6.746;2022-07-22T11:03:28;1.63;;;0.95;;
51778;SDS011;37843;53.266;6.746;2022-07-22T11:05:54;3.00;;;1.10;;
51778;SDS011;37843;53.266;6.746;2022-07-22T11:08:26;3.63;;;1.15;;
51778;SDS011;37843;53.266;6.746;2022-07-22T11:10:52;3.80;;;1.73;;
51778;SDS011;37843;53.266;6.746;2022-07-22T11:13:31;1.83;;;1.08;;
51778;SDS011;37843;53.266;6.746;2022-07-22T11:16:17;1.98;;;1.55;;
51778;SDS011;37843;53.266;6.746;2022-07-22T11:18:49;1.45;;;0.90;;
51778;SDS011;37843;53.266;6.746;2022-07-22T11:21:16;1.58;;;1.00;;
51778;SDS011;37843;53.266;6.746;2022-07-22T11:23:44;2.63;;;1.35;;
51778;SDS011;37843;53.266;6.746;2022-07-22T11:26:10;2.40;;;1.30;;
51778;SDS011;37843;53.266;6.746;2022-07-22T11:28:41;1.10;;;0.90;;
51778;SDS011;37843;53.266;6.746;2022-07-22T11:31:09;1.25;;;0.70;;
51778;SDS011;37843;53.266;6.746;2022-07-22T11:33:35;2.60;;;1.10;;
51778;SDS011;37843;53.266;6.746;2022-07-22T11:36:06;2.20;;;1.05;;
51778;SDS011;37843;53.266;6.746;2022-07-22T11:41:25;1.85;;;1.02;;
51778;SDS011;37843;53.266;6.746;2022-07-22T11:43:53;2.67;;;1.40;;
51778;SDS011;37843;53.266;6.746;2022-07-22T11:46:20;1.98;;;1.30;;
51778;SDS011;37843;53.266;6.746;2022-07-22T11:48:46;2.50;;;1.25;;
51778;SDS011;37843;53.266;6.746;2022-07-22T11:51:13;3.50;;;1.25;;
51778;SDS011;37843;53.266;6.746;2022-07-22T11:53:40;2.50;;;1.17;;
51778;SDS011;37843;53.266;6.746;2022-07-22T11:56:08;1.73;;;1.00;;
51778;SDS011;37843;53.266;6.746;2022-07-22T11:58:38;2.30;;;1.02;;
51778;SDS011;37843;53.266;6.746;2022-07-22T12:01:06;1.77;;;0.85;;
51778;SDS011;37843;53.266;6.746;2022-07-22T12:03:33;1.25;;;0.90;;
51778;SDS011;37843;53.266;6.746;2022-07-22T12:06:00;2.15;;;1.20;;
51778;SDS011;37843;53.266;6.746;2022-07-22T12:08:26;2.30;;;1.25;;
51778;SDS011;37843;53.266;6.746;2022-07-22T12:10:54;2.90;;;1.77;;
51778;SDS011;37843;53.266;6.746;2022-07-22T12:13:20;1.25;;;1.00;;
51778;SDS011;37843;53.266;6.746;2022-07-22T12:15:46;1.52;;;0.98;;
51778;SDS011;37843;53.266;6.746;2022-07-22T12:20:45;1.38;;;1.10;;
51778;SDS011;37843;53.266;6.746;2022-07-22T12:23:11;2.88;;;1.30;;
51778;SDS011;37843;53.266;6.746;2022-07-22T12:25:50;3.25;;;1.27;;
51778;SDS011;37843;53.266;6.746;2022-07-22T12:28:17;3.78;;;1.00;;
51778;SDS011;37843;53.266;6.746;2022-07-22T12:30:43;4.65;;;1.08;;
51778;SDS011;37843;53.266;6.746;2022-07-22T12:33:13;2.40;;;1.17;;
51778;SDS011;37843;53.266;6.746;2022-07-22T12:35:40;3.60;;;1.13;;
51778;SDS011;37843;53.266;6.746;2022-07-22T12:38:07;2.53;;;1.35;;
51778;SDS011;37843;53.266;6.746;2022-07-22T12:40:37;3.65;;;1.15;;
51778;SDS011;37843;53.266;6.746;2022-07-22T12:43:07;1.88;;;1.00;;
51778;SDS011;37843;53.266;6.746;2022-07-22T12:45:37;1.83;;;0.95;;
51778;SDS011;37843;53.266;6.746;2022-07-22T12:50:34;5.43;;;1.67;;
51778;SDS011;37843;53.266;6.746;2022-07-22T12:53:02;3.65;;;1.77;;
51778;SDS011;37843;53.266;6.746;2022-07-22T12:55:29;1.98;;;1.70;;
51778;SDS011;37843;53.266;6.746;2022-07-22T12:57:56;5.78;;;1.33;;
51778;SDS011;37843;53.266;6.746;2022-07-22T13:00:23;3.50;;;0.93;;
51778;SDS011;37843;53.266;6.746;2022-07-22T13:02:51;1.40;;;0.80;;
51778;SDS011;37843;53.266;6.746;2022-07-22T13:05:18;8.05;;;1.20;;
51778;SDS011;37843;53.266;6.746;2022-07-22T13:07:45;1.73;;;1.20;;
51778;SDS011;37843;53.266;6.746;2022-07-22T13:10:11;1.13;;;1.00;;
51778;SDS011;37843;53.266;6.746;2022-07-22T13:12:38;2.00;;;1.00;;
51778;SDS011;37843;53.266;6.746;2022-07-22T13:15:04;2.75;;;1.20;;
51778;SDS011;37843;53.266;6.746;2022-07-22T13:17:30;2.33;;;1.33;;
51778;SDS011;37843;53.266;6.746;2022-07-22T13:19:56;1.77;;;0.98;;
51778;SDS011;37843;53.266;6.746;2022-07-22T13:22:22;2.70;;;1.00;;
51778;SDS011;37843;53.266;6.746;2022-07-22T13:24:49;3.70;;;1.10;;
51778;SDS011;37843;53.266;6.746;2022-07-22T13:27:15;2.30;;;1.10;;
51778;SDS011;37843;53.266;6.746;2022-07-22T13:29:41;1.70;;;0.93;;
51778;SDS011;37843;53.266;6.746;2022-07-22T13:32:07;1.35;;;1.00;;
51778;SDS011;37843;53.266;6.746;2022-07-22T13:34:33;3.80;;;0.90;;
51778;SDS011;37843;53.266;6.746;2022-07-22T13:37:00;2.42;;;1.00;;
51778;SDS011;37843;53.266;6.746;2022-07-22T13:39:26;2.13;;;1.00;;
51778;SDS011;37843;53.266;6.746;2022-07-22T13:41:52;1.30;;;0.88;;
51778;SDS011;37843;53.266;6.746;2022-07-22T13:44:18;1.88;;;1.10;;
51778;SDS011;37843;53.266;6.746;2022-07-22T13:46:44;2.15;;;1.20;;
51778;SDS011;37843;53.266;6.746;2022-07-22T13:49:11;2.95;;;1.20;;
51778;SDS011;37843;53.266;6.746;2022-07-22T13:51:37;3.30;;;0.85;;
51778;SDS011;37843;53.266;6.746;2022-07-22T13:54:03;1.50;;;0.90;;
51778;SDS011;37843;53.266;6.746;2022-07-22T13:56:30;1.58;;;0.80;;
51778;SDS011;37843;53.266;6.746;2022-07-22T13:58:57;1.35;;;0.80;;
51778;SDS011;37843;53.266;6.746;2022-07-22T14:01:23;1.38;;;0.77;;
51778;SDS011;37843;53.266;6.746;2022-07-22T14:03:50;3.53;;;1.02;;
51778;SDS011;37843;53.266;6.746;2022-07-22T14:06:16;2.65;;;0.88;;
51778;SDS011;37843;53.266;6.746;2022-07-22T14:08:42;0.88;;;0.73;;
51778;SDS011;37843;53.266;6.746;2022-07-22T14:11:08;1.70;;;0.80;;
51778;SDS011;37843;53.266;6.746;2022-07-22T14:13:34;4.78;;;1.20;;
51778;SDS011;37843;53.266;6.746;2022-07-22T14:16:01;1.30;;;0.70;;
51778;SDS011;37843;53.266;6.746;2022-07-22T14:18:46;1.83;;;0.80;;
51778;SDS011;37843;53.266;6.746;2022-07-22T14:21:14;1.98;;;0.75;;
51778;SDS011;37843;53.266;6.746;2022-07-22T14:23:40;2.85;;;0.95;;
51778;SDS011;37843;53.266;6.746;2022-07-22T14:26:08;1.48;;;0.93;;
51778;SDS011;37843;53.266;6.746;2022-07-22T14:28:34;3.78;;;1.17;;
51778;SDS011;37843;53.266;6.746;2022-07-22T14:31:05;1.65;;;0.82;;
51778;SDS011;37843;53.266;6.746;2022-07-22T14:33:32;3.42;;;0.80;;
51778;SDS011;37843;53.266;6.746;2022-07-22T14:35:58;3.42;;;1.00;;
51778;SDS011;37843;53.266;6.746;2022-07-22T14:38:25;2.50;;;0.93;;
51778;SDS011;37843;53.266;6.746;2022-07-22T14:40:51;0.85;;;0.65;;
51778;SDS011;37843;53.266;6.746;2022-07-22T14:43:17;1.90;;;1.00;;
51778;SDS011;37843;53.266;6.746;2022-07-22T14:45:44;1.10;;;0.80;;
51778;SDS011;37843;53.266;6.746;2022-07-22T14:48:11;2.33;;;1.10;;
51778;SDS011;37843;53.266;6.746;2022-07-22T14:50:37;3.35;;;0.95;;
51778;SDS011;37843;53.266;6.746;2022-07-22T14:53:07;2.58;;;0.70;;
51778;SDS011;37843;53.266;6.746;2022-07-22T14:55:33;5.07;;;1.30;;
51778;SDS011;37843;53.266;6.746;2022-07-22T14:57:59;3.42;;;1.42;;
51778;SDS011;37843;53.266;6.746;2022-07-22T15:00:25;3.53;;;1.13;;
51778;SDS011;37843;53.266;6.746;2022-07-22T15:02:52;1.52;;;0.88;;
51778;SDS011;37843;53.266;6.746;2022-07-22T15:05:18;2.40;;;1.02;;
51778;SDS011;37843;53.266;6.746;2022-07-22T15:07:45;2.63;;;0.90;;
51778;SDS011;37843;53.266;6.746;2022-07-22T15:10:11;2.10;;;0.90;;